createdAt,value
2023-05-18T00:02:21.334Z,76.90
2023-05-18T00:04:48.652Z,76.70
2023-05-18T00:07:15.836Z,76.60
2023-05-18T00:09:42.940Z,76.50
2023-05-18T00:12:10.214Z,76.50
2023-05-18T00:14:37.562Z,76.50
2023-05-18T00:17:04.803Z,76.40
2023-05-18T00:19:31.926Z,76.70
2023-05-18T00:22:01.600Z,77.20
2023-05-18T00:24:29.542Z,76.70
2023-05-18T00:26:57.022Z,77.00
2023-05-18T00:29:24.117Z,77.00
2023-05-18T00:31:51.352Z,76.70
2023-05-18T00:34:19.090Z,76.30
2023-05-18T00:36:46.412Z,76.30
2023-05-18T00:39:14.031Z,76.40
2023-05-18T00:41:41.370Z,75.90
2023-05-18T00:44:08.612Z,76.20
2023-05-18T00:46:35.757Z,76.00
2023-05-18T00:49:03.112Z,76.10
2023-05-18T00:51:30.511Z,76.50
2023-05-18T00:53:57.661Z,76.60
2023-05-18T00:56:27.303Z,76.30
2023-05-18T00:58:57.673Z,76.40
2023-05-18T01:01:29.722Z,76.70
2023-05-18T01:03:58.180Z,76.70
2023-05-18T01:06:27.991Z,77.00
2023-05-18T01:08:55.150Z,77.40
2023-05-18T01:11:46.244Z,77.80
2023-05-18T01:14:18.213Z,78.00
2023-05-18T01:17:13.306Z,77.80
2023-05-18T01:19:55.110Z,77.40
2023-05-18T01:22:39.122Z,77.70
2023-05-18T01:25:19.725Z,77.80
2023-05-18T01:27:46.891Z,77.80
2023-05-18T01:30:18.401Z,77.40
2023-05-18T01:32:48.552Z,77.10
2023-05-18T01:35:15.694Z,77.40
2023-05-18T01:37:42.769Z,78.30
2023-05-18T01:40:09.909Z,78.20
2023-05-18T01:42:39.996Z,78.40
2023-05-18T01:45:13.579Z,78.80
2023-05-18T01:47:41.004Z,79.60
2023-05-18T01:50:16.518Z,79.10
2023-05-18T01:52:46.287Z,80.40
2023-05-18T01:55:13.774Z,81.20
2023-05-18T01:57:41.761Z,81.60
2023-05-18T02:00:10.423Z,81.10
2023-05-18T02:02:37.463Z,81.30
2023-05-18T02:05:05.887Z,82.00
2023-05-18T02:07:33.001Z,82.30
2023-05-18T02:09:59.998Z,82.50
2023-05-18T02:12:27.364Z,82.00
2023-05-18T02:14:55.540Z,82.80
2023-05-18T02:17:26.330Z,83.00
2023-05-18T02:19:53.966Z,83.20
2023-05-18T02:22:20.967Z,83.00
2023-05-18T02:24:48.119Z,83.40
2023-05-18T02:27:15.588Z,83.80
2023-05-18T02:29:43.187Z,83.40
2023-05-18T02:32:10.348Z,83.00
2023-05-18T02:34:38.518Z,83.60
2023-05-18T02:37:05.696Z,83.80
2023-05-18T02:39:34.110Z,84.20
2023-05-18T02:42:01.341Z,84.10
2023-05-18T02:44:28.722Z,84.20
2023-05-18T02:46:55.798Z,84.10
2023-05-18T02:49:22.840Z,84.60
2023-05-18T02:51:49.882Z,84.90
2023-05-18T02:54:16.931Z,85.30
2023-05-18T02:56:44.013Z,84.90
2023-05-18T02:59:11.739Z,84.90
2023-05-18T03:01:41.338Z,84.40
2023-05-18T03:04:08.440Z,84.20
2023-05-18T03:06:36.268Z,83.90
2023-05-18T03:09:03.279Z,84.30
2023-05-18T03:11:30.297Z,84.80
2023-05-18T03:13:57.385Z,84.40
2023-05-18T03:16:28.894Z,83.80
2023-05-18T03:18:59.262Z,84.20
2023-05-18T03:21:34.230Z,84.50
2023-05-18T03:24:01.324Z,85.10
2023-05-18T03:26:31.202Z,84.90
2023-05-18T03:28:58.767Z,85.00
2023-05-18T03:31:26.364Z,85.00
2023-05-18T03:33:53.530Z,85.60
2023-05-18T03:36:22.725Z,85.70
2023-05-18T03:38:49.882Z,85.00
2023-05-18T03:41:16.927Z,85.20
2023-05-18T03:43:43.973Z,84.90
2023-05-18T03:46:11.236Z,85.30
2023-05-18T03:48:38.360Z,85.30
2023-05-18T03:51:06.207Z,84.20
2023-05-18T03:53:34.058Z,84.10
2023-05-18T03:56:01.437Z,84.60
2023-05-18T03:58:29.419Z,85.10
2023-05-18T04:00:56.562Z,85.10
2023-05-18T04:03:25.262Z,85.40
2023-05-18T04:05:53.516Z,85.70
2023-05-18T04:08:20.934Z,85.40
2023-05-18T04:10:47.987Z,85.20
2023-05-18T04:13:15.115Z,84.40
2023-05-18T04:15:42.431Z,83.60
2023-05-18T04:18:10.641Z,82.90
2023-05-18T04:20:41.886Z,83.70
2023-05-18T04:23:10.446Z,84.00
2023-05-18T04:25:39.600Z,83.70
2023-05-18T04:28:06.707Z,84.10
2023-05-18T04:30:35.634Z,84.20
2023-05-18T04:33:04.402Z,83.70
2023-05-18T04:35:32.240Z,83.20
2023-05-18T04:37:59.595Z,83.80
2023-05-18T04:40:26.757Z,84.10
2023-05-18T04:42:53.914Z,83.60
2023-05-18T04:45:22.438Z,83.40
2023-05-18T04:47:54.322Z,83.50
2023-05-18T04:50:23.923Z,83.20
2023-05-18T04:52:51.768Z,83.50
2023-05-18T04:55:26.148Z,83.60
2023-05-18T04:57:57.039Z,83.10
2023-05-18T05:00:25.048Z,83.30
2023-05-18T05:02:52.333Z,84.40
2023-05-18T05:05:19.662Z,84.60
2023-05-18T05:07:51.790Z,85.10
2023-05-18T05:10:20.177Z,84.40
2023-05-18T05:12:49.338Z,84.30
2023-05-18T05:15:17.135Z,84.20
2023-05-18T05:17:44.445Z,84.00
2023-05-18T05:20:11.745Z,83.00
2023-05-18T05:22:39.268Z,82.90
2023-05-18T05:25:06.807Z,83.20
2023-05-18T05:27:34.156Z,83.50
2023-05-18T05:30:01.383Z,84.10
2023-05-18T05:32:28.454Z,84.00
2023-05-18T05:34:55.625Z,84.40
2023-05-18T05:37:22.745Z,84.50
2023-05-18T05:39:49.787Z,83.00
2023-05-18T05:42:16.934Z,83.00
2023-05-18T05:44:44.112Z,82.70
2023-05-18T05:47:11.270Z,82.80
2023-05-18T05:49:38.457Z,83.00
2023-05-18T05:52:05.898Z,83.00
2023-05-18T05:54:33.124Z,82.10
2023-05-18T05:57:00.635Z,81.60
2023-05-18T05:59:27.686Z,81.70
2023-05-18T06:01:54.793Z,81.70
2023-05-18T06:04:21.989Z,80.80
2023-05-18T06:06:49.594Z,81.40
2023-05-18T06:09:16.684Z,81.90
2023-05-18T06:11:43.802Z,81.20
2023-05-18T06:14:10.939Z,81.50
2023-05-18T06:16:38.456Z,82.10
2023-05-18T06:19:05.928Z,82.90
2023-05-18T06:21:33.343Z,82.50
2023-05-18T06:24:01.549Z,82.20
2023-05-18T06:26:28.904Z,82.10
2023-05-18T06:28:56.713Z,81.30
2023-05-18T06:31:23.969Z,80.60
2023-05-18T06:33:51.186Z,81.10
2023-05-18T06:36:18.274Z,81.30
2023-05-18T06:38:51.003Z,80.50
2023-05-18T06:41:18.135Z,81.50
2023-05-18T06:43:45.294Z,81.60
2023-05-18T06:46:21.297Z,82.50
2023-05-18T06:48:48.805Z,81.80
2023-05-18T06:51:19.366Z,81.70
2023-05-18T06:53:46.620Z,81.70
2023-05-18T06:56:13.949Z,81.80
2023-05-18T06:58:41.856Z,82.30
2023-05-18T07:01:10.168Z,81.70
2023-05-18T07:03:37.625Z,81.50
2023-05-18T07:06:05.388Z,81.90
2023-05-18T07:08:32.688Z,81.60
2023-05-18T07:11:02.654Z,81.60
2023-05-18T07:13:33.095Z,80.60
2023-05-18T07:16:00.180Z,81.70
2023-05-18T07:18:27.407Z,82.00
2023-05-18T07:20:54.444Z,81.20
2023-05-18T07:23:22.651Z,80.50
2023-05-18T07:25:49.738Z,79.90
2023-05-18T07:28:17.248Z,80.30
2023-05-18T07:30:44.384Z,80.30
2023-05-18T07:33:12.031Z,80.10
2023-05-18T07:35:39.385Z,80.10
2023-05-18T07:38:06.848Z,80.00
2023-05-18T07:40:34.092Z,79.80
2023-05-18T07:43:01.595Z,79.80
2023-05-18T07:45:29.116Z,79.00
2023-05-18T07:47:56.698Z,79.40
2023-05-18T07:50:24.581Z,78.50
2023-05-18T07:52:51.678Z,78.80
2023-05-18T07:55:19.499Z,78.30
2023-05-18T07:58:07.041Z,78.10
2023-05-18T08:00:34.525Z,77.70
2023-05-18T08:03:02.034Z,78.80
2023-05-18T08:05:29.829Z,79.00
2023-05-18T08:07:57.566Z,79.00
2023-05-18T08:10:25.102Z,78.30
2023-05-18T08:13:43.887Z,79.30
2023-05-18T08:16:34.817Z,78.90
2023-05-18T08:19:02.287Z,79.10
2023-05-18T08:21:29.995Z,78.60
2023-05-18T08:23:57.157Z,78.60
2023-05-18T08:26:24.763Z,79.70
2023-05-18T08:28:52.272Z,78.10
2023-05-18T08:31:19.392Z,79.00
2023-05-18T08:33:46.622Z,79.10
2023-05-18T08:36:13.842Z,78.30
2023-05-18T08:38:41.122Z,78.30
2023-05-18T08:41:19.215Z,77.80
2023-05-18T08:44:51.057Z,78.00
2023-05-18T08:47:18.369Z,78.10
2023-05-18T08:49:46.381Z,77.30
2023-05-18T08:52:16.011Z,77.70
2023-05-18T08:54:43.041Z,78.20
2023-05-18T08:57:10.298Z,78.20
2023-05-18T08:59:41.074Z,77.90
2023-05-18T09:02:08.458Z,77.90
2023-05-18T09:04:35.884Z,78.10
2023-05-18T09:07:03.964Z,78.90
2023-05-18T09:09:31.516Z,78.90
2023-05-18T09:11:58.644Z,78.20
2023-05-18T09:14:27.112Z,77.70
2023-05-18T09:16:54.428Z,76.70
2023-05-18T09:19:21.746Z,76.60
2023-05-18T09:21:49.068Z,76.00
2023-05-18T09:24:16.177Z,76.60
2023-05-18T09:26:43.269Z,75.90
2023-05-18T09:29:22.785Z,76.40
2023-05-18T09:31:49.984Z,77.20
2023-05-18T09:34:19.512Z,76.40
2023-05-18T09:36:57.924Z,76.20
2023-05-18T09:39:25.078Z,76.30
2023-05-18T09:41:57.556Z,76.40
2023-05-18T09:44:37.260Z,76.80
2023-05-18T09:47:09.839Z,76.80
2023-05-18T09:49:37.818Z,75.90
2023-05-18T09:52:09.251Z,74.90
2023-05-18T09:54:37.419Z,74.30
2023-05-18T09:59:37.001Z,75.30
2023-05-18T10:02:12.248Z,73.90
2023-05-18T10:04:40.604Z,74.00
2023-05-18T10:07:15.295Z,73.40
2023-05-18T10:09:43.359Z,73.20
2023-05-18T10:12:12.600Z,73.90
2023-05-18T10:14:42.240Z,73.50
2023-05-18T10:17:16.598Z,74.30
2023-05-18T10:19:44.487Z,72.60
2023-05-18T10:22:11.792Z,72.30
2023-05-18T10:24:43.533Z,72.90
2023-05-18T10:27:11.308Z,72.50
2023-05-18T10:29:38.395Z,71.00
2023-05-18T10:32:07.925Z,71.60
2023-05-18T10:34:35.275Z,70.00
2023-05-18T10:37:05.581Z,70.10
2023-05-18T10:39:36.654Z,71.00
2023-05-18T10:42:03.927Z,70.70
2023-05-18T10:44:31.114Z,71.70
2023-05-18T10:46:58.394Z,72.70
2023-05-18T10:49:26.308Z,72.80
2023-05-18T10:51:55.282Z,72.30
2023-05-18T10:54:25.504Z,71.90
2023-05-18T10:56:53.634Z,72.30
2023-05-18T10:59:23.721Z,72.20
2023-05-18T11:02:17.875Z,72.30
2023-05-18T11:04:48.299Z,71.50
2023-05-18T11:07:15.807Z,72.30
2023-05-18T11:09:43.740Z,72.90
2023-05-18T11:12:14.734Z,72.40
2023-05-18T11:14:52.348Z,72.40
2023-05-18T11:17:20.907Z,73.80
2023-05-18T11:20:06.478Z,73.60
2023-05-18T11:22:46.808Z,74.30
2023-05-18T11:25:35.125Z,74.00
2023-05-18T11:28:05.010Z,74.50
2023-05-18T11:30:36.650Z,74.40
2023-05-18T11:33:17.947Z,74.30
2023-05-18T11:36:04.424Z,74.80
2023-05-18T11:38:54.401Z,75.20
2023-05-18T11:41:36.853Z,75.10
2023-05-18T11:44:13.016Z,75.30
2023-05-18T11:46:59.504Z,74.60
2023-05-18T11:49:28.225Z,74.60
2023-05-18T11:52:07.456Z,74.00
2023-05-18T11:54:41.625Z,73.00
2023-05-18T11:57:08.921Z,72.10
2023-05-18T11:59:47.318Z,72.40
2023-05-18T12:02:20.498Z,72.20
2023-05-18T12:04:50.900Z,72.70
2023-05-18T12:07:19.715Z,72.60
2023-05-18T12:09:47.615Z,72.20
2023-05-18T12:12:20.477Z,73.40
2023-05-18T12:15:08.700Z,73.80
2023-05-18T12:17:45.555Z,72.00
2023-05-18T12:20:13.464Z,72.60
2023-05-18T12:22:41.482Z,73.10
2023-05-18T12:25:09.263Z,73.30
2023-05-18T12:27:59.896Z,72.30
2023-05-18T12:30:37.468Z,72.50
2023-05-18T12:33:04.893Z,71.50
2023-05-18T12:35:33.197Z,71.80
2023-05-18T12:38:01.917Z,72.20
2023-05-18T12:40:38.819Z,72.50
2023-05-18T12:45:51.132Z,72.00
2023-05-18T12:48:18.765Z,72.80
2023-05-18T12:50:49.308Z,72.50
2023-05-18T12:53:17.063Z,72.60
2023-05-18T12:55:48.184Z,71.90
2023-05-18T12:58:37.803Z,71.70
2023-05-18T13:01:09.796Z,69.90
2023-05-18T13:03:40.566Z,70.40
2023-05-18T13:06:08.764Z,70.30
2023-05-18T13:08:36.399Z,69.50
2023-05-18T13:11:13.445Z,69.60
2023-05-18T13:17:03.759Z,69.30
2023-05-18T13:19:31.817Z,68.50
2023-05-18T13:21:59.044Z,68.80
2023-05-18T13:24:26.214Z,68.40
2023-05-18T13:26:53.431Z,68.90
2023-05-18T13:30:08.137Z,69.20
2023-05-18T13:32:35.706Z,70.00
2023-05-18T13:35:02.988Z,70.30
2023-05-18T13:37:30.279Z,71.40
2023-05-18T13:39:57.490Z,71.20
2023-05-18T13:42:27.290Z,70.50
2023-05-18T13:45:16.042Z,71.50
2023-05-18T13:48:09.868Z,70.90
2023-05-18T13:50:37.985Z,70.90
2023-05-18T13:53:05.388Z,70.90
2023-05-18T13:55:33.490Z,70.60
2023-05-18T13:58:01.131Z,69.70
2023-05-18T14:01:13.631Z,69.70
2023-05-18T14:03:41.254Z,69.00
2023-05-18T14:06:08.644Z,68.10
2023-05-18T14:08:36.055Z,68.60
2023-05-18T14:11:03.150Z,69.20
2023-05-18T14:13:30.404Z,68.90
2023-05-18T14:15:57.787Z,69.00
2023-05-18T14:18:24.882Z,67.90
2023-05-18T14:20:52.353Z,68.10
2023-05-18T14:23:19.617Z,68.10
2023-05-18T14:25:46.708Z,67.50
2023-05-18T14:28:14.073Z,67.60
2023-05-18T14:30:46.263Z,67.40
2023-05-18T14:33:13.446Z,68.10
2023-05-18T14:35:40.785Z,68.70
2023-05-18T14:38:10.649Z,67.90
2023-05-18T14:40:37.886Z,68.50
2023-05-18T14:43:05.004Z,68.60
2023-05-18T14:45:32.181Z,69.10
2023-05-18T14:47:59.294Z,69.40
2023-05-18T14:50:26.310Z,70.00
2023-05-18T14:52:55.023Z,70.10
2023-05-18T14:55:22.211Z,70.00
2023-05-18T14:57:49.329Z,70.30
2023-05-18T15:00:17.751Z,70.60
2023-05-18T15:02:45.007Z,70.80
2023-05-18T15:05:12.881Z,70.30
2023-05-18T15:07:39.945Z,70.90
2023-05-18T15:10:07.754Z,70.90
2023-05-18T15:12:34.807Z,70.20
2023-05-18T15:15:02.180Z,70.50
2023-05-18T15:17:29.247Z,70.90
2023-05-18T15:19:56.503Z,69.60
2023-05-18T15:22:23.653Z,69.70
2023-05-18T15:24:51.163Z,70.10
2023-05-18T15:27:18.354Z,70.70
2023-05-18T15:29:46.863Z,70.70
2023-05-18T15:32:16.380Z,71.40
2023-05-18T15:34:43.430Z,71.60
2023-05-18T15:37:10.961Z,72.50
2023-05-18T15:39:38.530Z,72.20
2023-05-18T15:42:06.062Z,72.00
2023-05-18T15:44:33.310Z,72.00
2023-05-18T15:47:00.989Z,71.90
2023-05-18T15:49:28.165Z,73.00
2023-05-18T15:51:58.120Z,72.30
2023-05-18T15:54:28.255Z,72.30
2023-05-18T15:56:56.052Z,71.90
2023-05-18T15:59:23.176Z,71.70
2023-05-18T16:01:50.326Z,71.60
2023-05-18T16:04:17.697Z,71.60
2023-05-18T16:06:44.952Z,72.40
2023-05-18T16:09:12.433Z,72.50
2023-05-18T16:11:39.811Z,72.60
2023-05-18T16:14:07.196Z,72.60
2023-05-18T16:16:34.602Z,72.70
2023-05-18T16:19:02.550Z,72.70
2023-05-18T16:21:29.738Z,73.40
2023-05-18T16:23:56.969Z,73.70
2023-05-18T16:26:24.041Z,73.70
2023-05-18T16:28:51.430Z,74.20
2023-05-18T16:31:18.524Z,74.20
2023-05-18T16:33:45.930Z,73.70
2023-05-18T16:36:13.105Z,74.00
2023-05-18T16:38:40.125Z,74.20
2023-05-18T16:41:07.293Z,74.20
2023-05-18T16:43:35.539Z,74.10
2023-05-18T16:46:05.284Z,73.70
2023-05-18T16:48:32.306Z,73.90
2023-05-18T16:50:59.601Z,73.20
2023-05-18T16:53:26.956Z,73.60
2023-05-18T16:55:56.773Z,73.90
2023-05-18T16:58:24.076Z,73.80
2023-05-18T17:00:51.162Z,73.60
2023-05-18T17:03:18.356Z,73.70
2023-05-18T17:05:46.191Z,73.60
2023-05-18T17:08:13.457Z,73.60
2023-05-18T17:10:41.249Z,73.70
2023-05-18T17:13:08.543Z,73.90
2023-05-18T17:15:36.360Z,74.10
2023-05-18T17:18:03.625Z,74.20
2023-05-18T17:20:31.118Z,74.70
2023-05-18T17:23:00.427Z,74.70
2023-05-18T17:25:28.708Z,75.00
2023-05-18T17:27:55.848Z,75.20
2023-05-18T17:30:22.867Z,75.30
2023-05-18T17:32:51.027Z,75.00
2023-05-18T17:35:18.367Z,75.20
2023-05-18T17:37:46.637Z,75.50
2023-05-18T17:40:14.014Z,75.60
2023-05-18T17:42:41.246Z,75.60
2023-05-18T17:45:09.014Z,76.00
2023-05-18T17:47:38.651Z,77.00
2023-05-18T17:50:06.332Z,76.70
2023-05-18T17:52:33.577Z,76.50
2023-05-18T17:55:02.716Z,76.70
2023-05-18T17:57:30.360Z,76.90
2023-05-18T17:59:59.583Z,77.00
2023-05-18T18:02:26.808Z,76.90
2023-05-18T18:04:54.064Z,76.90
2023-05-18T18:07:22.215Z,76.80
2023-05-18T18:09:49.511Z,76.80
2023-05-18T18:12:17.198Z,76.90
2023-05-18T18:14:47.656Z,77.00
2023-05-18T18:17:14.816Z,77.30
2023-05-18T18:19:41.979Z,77.50
2023-05-18T18:22:09.108Z,77.30
2023-05-18T18:24:36.480Z,77.30
2023-05-18T18:27:04.498Z,77.20
2023-05-18T18:29:31.823Z,77.70
2023-05-18T18:31:59.169Z,78.20
2023-05-18T18:34:26.577Z,78.30
2023-05-18T18:36:54.083Z,78.30
2023-05-18T18:39:21.464Z,78.30
2023-05-18T18:41:48.598Z,78.10
2023-05-18T18:44:15.699Z,77.90
2023-05-18T18:46:42.878Z,77.90
2023-05-18T18:49:10.046Z,78.40
2023-05-18T18:51:37.396Z,78.40
2023-05-18T18:54:06.639Z,78.40
2023-05-18T18:56:33.797Z,79.00
2023-05-18T18:59:01.027Z,78.70
2023-05-18T19:01:28.419Z,79.00
2023-05-18T19:03:55.884Z,79.10
2023-05-18T19:06:24.394Z,78.70
2023-05-18T19:08:53.581Z,78.60
2023-05-18T19:11:23.605Z,78.50
2023-05-18T19:13:50.954Z,78.60
2023-05-18T19:16:18.814Z,78.40
2023-05-18T19:18:47.416Z,78.70
2023-05-18T19:21:14.642Z,78.70
2023-05-18T19:23:41.913Z,78.80
2023-05-18T19:26:09.251Z,79.20
2023-05-18T19:28:36.541Z,79.80
2023-05-18T19:31:04.447Z,79.70
2023-05-18T19:33:31.892Z,79.40
2023-05-18T19:35:59.226Z,79.40
2023-05-18T19:38:26.494Z,79.20
2023-05-18T19:40:53.586Z,79.00
2023-05-18T19:43:20.762Z,78.90
2023-05-18T19:45:50.231Z,78.90
2023-05-18T19:48:18.302Z,79.10
2023-05-18T19:50:45.685Z,79.20
2023-05-18T19:53:12.918Z,79.00
2023-05-18T19:55:40.109Z,79.40
2023-05-18T19:58:07.278Z,79.40
2023-05-18T20:00:34.745Z,79.60
2023-05-18T20:03:03.963Z,79.80
2023-05-18T20:05:31.513Z,80.00
2023-05-18T20:07:59.173Z,79.90
2023-05-18T20:10:26.640Z,79.90
2023-05-18T20:12:53.871Z,79.90
2023-05-18T20:15:21.064Z,79.60
2023-05-18T20:17:48.317Z,79.60
2023-05-18T20:20:17.081Z,79.90
2023-05-18T20:22:44.259Z,80.00
2023-05-18T20:25:12.260Z,80.20
2023-05-18T20:27:39.470Z,80.30
2023-05-18T20:30:07.504Z,80.50
2023-05-18T20:32:34.715Z,80.80
2023-05-18T20:35:02.692Z,81.00
2023-05-18T20:37:30.507Z,81.10
2023-05-18T20:39:58.748Z,81.70
2023-05-18T20:42:32.115Z,81.30
2023-05-18T20:45:02.670Z,81.60
2023-05-18T20:47:32.216Z,81.70
2023-05-18T20:50:01.833Z,81.90
2023-05-18T20:52:29.507Z,82.20
2023-05-18T20:54:56.763Z,82.50
2023-05-18T20:57:24.118Z,82.70
2023-05-18T20:59:51.695Z,83.10
2023-05-18T21:02:19.802Z,83.70
2023-05-18T21:04:48.258Z,83.90
2023-05-18T21:07:16.801Z,84.10
2023-05-18T21:09:43.913Z,84.20
2023-05-18T21:12:11.391Z,84.00
2023-05-18T21:14:38.716Z,84.10
2023-05-18T21:17:06.571Z,83.90
2023-05-18T21:19:33.905Z,83.50
2023-05-18T21:22:01.135Z,83.30
2023-05-18T21:24:28.265Z,83.40
2023-05-18T21:26:56.067Z,83.20
2023-05-18T21:29:23.346Z,83.30
2023-05-18T21:31:50.745Z,83.50
2023-05-18T21:34:18.168Z,83.60
2023-05-18T21:36:46.675Z,83.60
2023-05-18T21:39:13.829Z,83.90
2023-05-18T21:41:42.573Z,84.00
2023-05-18T21:44:09.957Z,83.90
2023-05-18T21:46:37.335Z,84.30
2023-05-18T21:49:05.373Z,84.40
2023-05-18T21:51:32.628Z,84.20
2023-05-18T21:54:00.188Z,84.00
2023-05-18T21:56:27.794Z,83.70
2023-05-18T21:58:55.301Z,83.30
2023-05-18T22:01:23.645Z,83.10
2023-05-18T22:03:51.234Z,82.90
2023-05-18T22:06:18.392Z,82.60
2023-05-18T22:08:46.395Z,82.50
2023-05-18T22:11:13.726Z,82.60
2023-05-18T22:13:40.918Z,82.50
2023-05-18T22:16:08.055Z,82.50
2023-05-18T22:18:35.169Z,82.60
2023-05-18T22:21:02.265Z,82.80
2023-05-18T22:23:29.292Z,83.00
2023-05-18T22:25:56.333Z,83.00
2023-05-18T22:28:23.490Z,83.20
2023-05-18T22:30:51.744Z,83.20
2023-05-18T22:33:18.968Z,83.30
2023-05-18T22:35:46.151Z,83.30
2023-05-18T22:38:13.250Z,83.30
2023-05-18T22:40:40.672Z,83.30
2023-05-18T22:43:07.862Z,83.20
2023-05-18T22:45:35.009Z,83.00
2023-05-18T22:48:02.692Z,83.00
2023-05-18T22:50:30.177Z,82.80
2023-05-18T22:52:57.486Z,82.80
2023-05-18T22:55:24.563Z,82.70
2023-05-18T22:57:51.844Z,82.90
2023-05-18T23:00:19.335Z,83.00
2023-05-18T23:02:46.621Z,83.20
2023-05-18T23:05:14.128Z,83.30
2023-05-18T23:07:41.971Z,83.30
2023-05-18T23:10:13.070Z,83.50
2023-05-18T23:12:41.807Z,83.70
2023-05-18T23:15:09.827Z,83.60
2023-05-18T23:17:39.776Z,83.40
2023-05-18T23:20:07.755Z,83.10
2023-05-18T23:22:35.345Z,83.10
2023-05-18T23:25:04.746Z,83.30
2023-05-18T23:27:34.687Z,83.40
2023-05-18T23:30:02.518Z,83.40
2023-05-18T23:32:30.537Z,83.30
2023-05-18T23:34:59.911Z,83.10
2023-05-18T23:37:38.273Z,83.20
2023-05-18T23:40:15.424Z,83.00
2023-05-18T23:42:43.500Z,82.80
2023-05-18T23:45:11.166Z,82.80
2023-05-18T23:47:38.663Z,82.80
2023-05-18T23:50:11.240Z,83.00
2023-05-18T23:52:38.600Z,83.00
2023-05-18T23:55:06.294Z,83.90
2023-05-18T23:57:33.692Z,83.40
